Colorado Springs, CO

08:57 AM MST on March 06, 2015 (GMT -0700)
Old North End | Change Station
CLOSE
Current Station
Personal Weather Stations
Location: Colorado Springs, CO
Elevation: 6086 ft
Nearby Weather Stations

Elev 6086 ft 38.85 °N, 104.82 °W | Updated 3 seconds ago

Safi
Safi
49.1 °F
Feels Like 49 °F
N
0.0
Upepo Ya mabadiliko Upepo from Magharibi(Mg)
Gusts 0.0 mph

Leo
High -- | Low -- °F
--% Chance of Precip.
Yesterday
High -- | Low -- °F
Precip. -- nchi
6:24 AM 5:57 PM
Full, 99% visible
Shinikizo 30.44 nchi
Mwangaza 10.0 meli
Clouds Few 16000 ft
Few 20000 ft
Ubaridi wa upepo 49 °F
Kilele cha umande 12 °F
Unyevu 22%
Rainfall nchi
Snow Depth Not available.
UV 1 out of 12
Pollen 6.40 out of 12
Air Quality Not available.
Flu Activity Not available.
METAR KCOS 061454Z 02008KT 10SM FEW160 FEW200 M01/M11 A3031 RMK AO2 SLP307 T10061106 53013

More Conditions Fewer Conditions

Shinikizo 30.44 nchi
Mwangaza 10.0 meli
Clouds Few 16000 ft
Few 20000 ft
Ubaridi wa upepo 49 °F
Kilele cha umande 12 °F
Unyevu 22%
Rainfall nchi
Snow Depth Not available.
UV 1 out of 12
Pollen 6.40 out of 12
Air Quality Not available.
Flu Activity Not available.
METAR KCOS 061454Z 02008KT 10SM FEW160 FEW200 M01/M11 A3031 RMK AO2 SLP307 T10061106 53013

More Conditions Fewer Conditions

10-Day Weather Forecast

Almanac

Astronomy

Mar. 06, 2015 Rise Set
Actual Time
Civil Twilight
Nautical Twilight
Astronomical Twilight
Moon
Length Of Visible Light
Length of Day
Tomorrow will be .
, % of the Moon is Illuminated

Today's Extremes

State Highs State Lows

Community

WunderPhotos

Upload Photos

1,803,303 photos uploaded!

WunderBlogs® & News

Nearby

Air Quality

  Air Quality AQ Index Pollutant
Not available.

Snow Depth

Station Depth Elevation

Earthquake Activity

City Distance Mag. Time & Date
Minimum magnitude displayed is 2.5.

Coastal Water Temperatures

Mahali Hali ya Hewa

Nearby Weather Stations